Weather in Lodz

2242 UTC 28 June 2017 EPLL 282230Z 10005KT 070V140 CAVOK 20/18 Q0999

Where pilots are born

  • Maxime from Belgium

    I would like to thank you again Bartolini Air for their professionalism and commitment. It is a high quality training with...

  • Fraser Johnston, First Officer, Loganair

    The team at Bartolini never promised more than they could deliver, and I achieved each element of my training within the...

  • Michele from Italy

    „The best”

22000+

Operations per year

1500+

Number of trained pilots

55+

Nationality students

How to join the training?